Flight Track Log - Related Links

Times and Time Zones

All times are in EDT time to prevent confusion due to time zone crossing. See the EJA929 flight status page for this flight to view local times or setup timezone preferences in your user account.

Time Position Orientation Groundspeed Altitude Reporting Facility
EDT Latitude Longitude Course Direction KTS MPH feet Rate Location/Type
Sun 01:38:28 PM 30.0908 -97.6694 278° West 243 280 5,500  Level Houston Center
Sun 01:39:30 PM 30.1203 -97.7492 293° West 280 322 8,700 2,661 Climbing Houston Center
Sun 01:40:32 PM 30.1692 -97.8286 305° West 295 339 11,000 1,839 Climbing Houston Center
Sun 01:41:34 PM 30.2333 -97.9339 305° West 345 397 12,500 1,548 Climbing Houston Center
Sun 01:42:36 PM 30.2892 -98.0353 303° West 371 427 14,200 1,548 Climbing Houston Center
Sun 01:43:00 PM 30.4196 -98.0397 278° West  Level FlightAware Approximate
Sun 01:43:38 PM 30.3186 -98.1578 286° West 386 444 15,700  Level Houston Center
Sun 01:44:40 PM 30.3431 -98.2661 285° West 387 445 17,200 1,500 Climbing Houston Center
Sun 01:45:42 PM 30.3736 -98.4114 284° West 394 453 18,800 1,403 Climbing Houston Center
Sun 01:46:44 PM 30.4003 -98.5392 284° West 401 461 20,100 1,210 Climbing Houston Center
Sun 01:47:46 PM 30.4283 -98.6686 284° West 409 471 21,300 1,306 Climbing Houston Center
Sun 01:48:48 PM 30.4567 -98.8025 284° West 420 483 22,800 1,452 Climbing Houston Center
Sun 01:49:50 PM 30.4858 -98.9358 284° West 423 487 24,300 1,306 Climbing Houston Center
Sun 01:50:52 PM 30.5150 -99.0703 284° West 425 489 25,500 1,065 Climbing Houston Center
Sun 01:51:54 PM 30.5417 -99.2008 283° West 430 495 26,500 1,113 Climbing Houston Center
Sun 01:52:56 PM 30.5775 -99.3675 284° West 445 512 27,800 1,161 Climbing Houston Center
Sun 01:53:58 PM 30.6078 -99.5058 284° West 445 512 28,900 1,065 Climbing Houston Center
Sun 01:55:00 PM 30.6358 -99.6483 283° West 452 520 30,000 1,161 Climbing Houston Center
Sun 01:56:02 PM 30.6653 -99.7900 284° West 452 520 31,300 1,210 Climbing Houston Center
Sun 01:57:04 PM 30.6953 -99.9369 283° West 466 536 32,500 1,210 Climbing Houston Center
Sun 01:58:06 PM 30.7314 -100.1119 284° West 478 550 33,800 1,161 Climbing Houston Center
Sun 01:59:08 PM 30.7606 -100.2575 283° West 472 543 34,900 1,065 Climbing Houston Center
Sun 02:00:10 PM 30.7886 -100.4042 283° West 481 554 36,000 532 Climbing Houston Center
Sun 02:01:12 PM 30.8186 -100.5536 283° West 482 555 36,000  Level Houston Center
Sun 02:02:14 PM 30.8464 -100.6958 283° West 461 531 36,000  Level Houston Center
Sun 02:03:16 PM 30.8803 -100.8678 283° West 461 531 36,000  Level Houston Center
Sun 02:04:18 PM 30.9072 -101.0072 283° West 459 528 36,000  Level Houston Center
Sun 02:05:20 PM 30.9347 -101.1467 283° West 453 521 36,000  Level Houston Center
Sun 02:06:22 PM 30.9631 -101.2839 284° West 451 519 36,000  Level Houston Center
Sun 02:07:24 PM 30.9897 -101.4386 281° West 445 512 36,000  Level Houston Center
Sun 02:08:26 PM 31.0172 -101.5803 283° West 452 520 36,000  Level Houston Center
Sun 02:09:28 PM 31.0439 -101.7214 282° West 450 518 36,000  Level Houston Center
Sun 02:10:30 PM 31.0683 -101.8653 281° West 451 519 36,000  Level Houston Center
Sun 02:11:32 PM 31.0878 -102.0083 279° West 449 517 36,000  Level Houston Center
Sun 02:12:34 PM 31.1131 -102.1831 280° West 462 532 36,000  Level Houston Center
Sun 02:13:36 PM 31.1317 -102.3336 278° West 477 549 36,000  Level Houston Center
Sun 02:14:46 PM 31.1556 -102.4722 281° West 449 517 36,000  Level Albuquerque Center
Sun 02:15:47 PM 31.1769 -102.6269 279° West 449 517 36,000  Level Albuquerque Center
Sun 02:16:49 PM 31.1978 -102.7711 280° West 449 517 36,000  Level Albuquerque Center
Sun 02:17:51 PM 31.2219 -102.9431 279° West 448 516 36,000  Level Albuquerque Center
Sun 02:18:53 PM 31.2422 -103.0875 279° West 450 518 36,000  Level Albuquerque Center
Sun 02:19:55 PM 31.2606 -103.2314 279° West 450 518 36,000  Level Albuquerque Center
Sun 02:20:57 PM 31.2817 -103.3753 280° West 449 517 36,000  Level Albuquerque Center
Sun 02:21:58 PM 31.3003 -103.5194 279° West 450 518 36,000  Level Albuquerque Center
Sun 02:23:00 PM 31.3203 -103.6628 279° West 449 517 36,000  Level Albuquerque Center
Sun 02:24:02 PM 31.3428 -103.8311 279° West 448 516 36,000  Level Albuquerque Center
Sun 02:25:04 PM 31.3614 -103.9742 279° West 448 516 36,000  Level Albuquerque Center
Sun 02:26:06 PM 31.3822 -104.1181 280° West 450 518 36,000  Level Albuquerque Center
Sun 02:27:07 PM 31.3992 -104.2606 278° West 448 516 36,000  Level Albuquerque Center
Sun 02:28:09 PM 31.4183 -104.4028 279° West 446 513 36,000 -1,016 Level Albuquerque Center
Sun 02:29:11 PM 31.4361 -104.5475 278° West 450 518 33,900 -2,371 Descending Albuquerque Center
Sun 02:30:13 PM 31.4586 -104.7242 279° West 459 528 31,100 -2,634 Descending Albuquerque Center
Sun 02:31:14 PM 31.4769 -104.8769 278° West 476 548 28,500 -2,488 Descending Albuquerque Center
Sun 02:32:16 PM 31.4967 -105.0328 278° West 486 559 26,000 -2,419 Descending Albuquerque Center
Sun 02:33:18 PM 31.5156 -105.1850 278° West 480 552 23,500 -2,371 Descending Albuquerque Center
Sun 02:34:20 PM 31.5331 -105.3289 278° West 459 528 21,100 -2,226 Descending Albuquerque Center
Sun 02:35:22 PM 31.5475 -105.4639 277° West 417 480 18,900 -2,293 Descending Albuquerque Center
Sun 02:36:23 PM 31.5667 -105.6153 278° West 391 450 16,400 -2,298 Descending Albuquerque Center
Sun 02:36:56 PM 31.5736 -105.6836 277° West 373 429 15,300 -1,839 Descending Albuquerque Center
Sun 02:37:25 PM 31.5786 -105.7336 277° West 371 427 14,500 -1,964 Descending Albuquerque Center
Sun 02:37:51 PM 31.5867 -105.7878 280° West 347 399 13,500 -1,935 Descending Albuquerque Center
Sun 02:38:27 PM 31.6086 -105.8436 295° West 362 417 12,500 -1,869 Descending Albuquerque Center
Sun 02:38:52 PM 31.6336 -105.8906 302° West 375 432 11,600 -1,839 Descending Albuquerque Center
Sun 02:39:29 PM 31.6664 -105.9422 307° West 380 437 10,600 -1,600 Descending Albuquerque Center
Sun 02:39:52 PM 31.6947 -105.9900 305° West 379 436 10,000 -984 Descending Albuquerque Center
Sun 02:40:30 PM 31.7197 -106.0331 304° West 334 384 9,600 -1,200 Descending Albuquerque Center
Sun 02:40:52 PM 31.7417 -106.0706 305° West 291 335 8,800 -1,645 Descending Albuquerque Center
Sun 02:41:32 PM 31.7667 -106.1111 306° West 296 341 7,900 -1,672 Descending Albuquerque Center
Sun 02:41:53 PM 31.7858 -106.1494 300° West 277 319 7,100 -1,355 Descending Albuquerque Center
Sun 02:42:34 PM 31.7928 -106.2083 278° West 259 298 6,500 -941 Descending Albuquerque Center
Sun 02:43:35 PM 31.7964 -106.2783 273° West 214 246 5,500 -977 Descending Albuquerque Center
Sun 02:44:43 PM 31.7986 -106.3361 273° West 133 153 4,400 -774 Descending Albuquerque Center
Sun 02:45:39 PM 31.8022 -106.3744 276° West 139 160 3,900 -536 Descending Albuquerque Center
Sun 02:47:00 PM 31.8000 -106.3667 270° West  Level FlightAware Approximate
Sun 02:54:00 PM 31.8072 -106.3764 270° West  Level Estimated
Sun 02:55:00 PM 31.8072 -106.3764 270° West  Level Estimated
Sun 02:56:00 PM 31.8072 -106.3764 270° West  Level Estimated
Sun 02:57:00 PM 31.8072 -106.3764 270° West  Level Estimated

Login

Don't have an account? Register now (free) for customized features, flight alerts, and more!